Date,TemperatureHighF,TemperatureAvgF,TemperatureLowF,DewpointHighF,DewpointAvgF,DewpointLowF,HumidityHigh,HumidityAvg,HumidityLow,PressureMaxIn,PressureMinIn,WindSpeedMaxMPH,WindSpeedAvgMPH,GustSpeedMaxMPH,PrecipitationSumIn
2013-1-1,43.5,36.5,25.7,40.3,33.7,23.4,92,89,88,30.30,30.03,11,3,11,0.00
2013-1-2,34.9,26.4,20.8,24.8,19.1,13.0,92,76,42,30.30,30.18,11,2,11,0.00
2013-1-3,44.2,29.5,18.0,29.8,20.7,15.6,94,73,40,30.44,30.27,10,1,10,0.04
2013-1-4,47.3,33.3,19.8,28.4,19.1,13.5,94,60,32,30.50,30.33,11,2,11,0.00
2013-1-5,42.6,36.3,27.1,32.8,23.2,13.6,96,60,46,30.33,30.18,14,3,15,0.00
2013-1-6,47.3,33.2,21.6,32.2,22.3,13.2,94,68,34,30.41,30.24,13,2,13,0.00
2013-1-7,51.1,37.1,21.2,25.2,19.5,15.4,90,51,32,30.36,29.14,17,2,17,0.00
2013-1-8,57.0,43.5,28.4,48.7,30.3,16.4,94,62,40,30.24,30.06,15,2,15,0.12
2013-1-9,55.2,54.0,52.5,51.3,50.0,48.6,86,86,86,30.24,30.24,8,2,8,0.13
2013-1-12,52.2,38.7,30.2,35.2,31.6,28.3,96,78,44,30.03,29.85,23,7,23,0.37
2013-1-13,30.0,23.1,16.3,28.6,20.6,15.2,96,90,74,30.36,30.00,18,6,18,0.13
2013-1-14,34.2,23.5,14.2,16.1,13.3,9.7,96,66,46,30.44,30.30,15,4,15,0.13
2013-1-15,35.4,25.8,18.5,20.7,16.3,12.2,92,69,42,30.33,30.15,20,3,20,0.00
2013-1-16,42.1,27.7,14.7,21.4,16.1,12.7,96,66,36,30.27,30.12,15,2,15,0.13
2013-1-17,50.2,34.9,23.5,29.7,21.4,13.9,86,59,40,30.47,30.21,13,2,13,0.13
2013-1-18,55.8,39.7,24.3,28.9,24.2,21.0,94,59,32,30.50,29.23,18,4,18,0.00
2013-1-19,63.1,49.2,36.7,34.2,27.8,21.0,80,45,30,30.24,30.12,19,5,19,0.00
2013-1-20,61.3,46.3,31.3,33.7,26.1,13.3,86,46,32,30.30,30.15,18,5,18,0.00
2013-1-21,41.7,29.9,21.9,13.9,9.7,6.8,54,43,30,30.41,30.27,15,5,15,0.00
2013-1-22,47.8,32.9,22.5,21.5,14.1,8.1,56,46,34,30.33,30.21,14,4,14,0.00
2013-1-23,62.1,42.3,23.9,41.1,30.4,14.2,88,65,42,30.30,30.18,13,2,13,0.00
2013-1-24,45.3,39.6,35.2,32.7,22.1,17.1,90,50,40,30.33,30.12,21,8,21,0.00
2013-1-25,51.4,40.7,35.1,39.6,33.1,26.7,92,76,48,30.27,30.09,15,2,15,0.00
2013-1-26,59.9,46.5,35.1,30.5,21.0,12.3,82,40,20,30.30,30.15,17,6,17,0.00
2013-1-27,59.4,53.5,46.2,57.5,48.7,24.4,94,85,42,30.15,29.97,23,8,23,0.00
2013-1-28,71.2,66.2,59.4,63.7,61.9,57.5,94,86,74,30.03,29.91,23,8,23,0.00
2013-1-29,67.5,63.9,46.3,64.6,60.1,41.8,94,87,80,29.91,28.38,28,7,28,1.58
2013-1-30,47.0,34.2,20.7,42.6,26.8,11.8,92,75,54,30.09,29.59,32,11,32,1.58
2013-1-31,48.7,29.3,18.3,24.6,16.1,1.4,92,61,36,30.44,30.03,18,4,18,1.58
2013-2-1,45.0,27.1,12.7,12.6,4.4,-2.2,56,39,24,30.47,30.18,15,5,15,1.58
2013-2-2,54.1,38.9,23.5,26.9,18.4,8.7,60,44,32,30.30,30.18,18,2,18,1.58
2013-2-3,53.8,44.1,35.6,23.5,20.0,16.9,58,39,28,30.33,30.00,9,3,9,0.00
2013-2-4,62.2,50.1,35.6,41.1,31.0,20.1,88,50,32,30.00,29.88,17,4,17,1.58
2013-2-5,65.7,46.9,31.8,44.3,30.9,24.5,94,59,24,30.12,29.94,17,2,17,1.58
2013-2-6,65.8,51.1,40.6,35.9,30.0,23.3,58,45,32,30.15,30.00,20,7,20,1.58
2013-2-7,62.2,53.3,42.6,57.5,48.8,34.3,92,85,58,30.15,29.91,18,6,18,1.58
2013-2-8,54.3,41.5,32.9,39.7,30.7,24.9,92,68,40,30.33,30.12,14,5,14,1.58
2013-2-9,48.6,40.2,33.8,44.5,33.7,26.6,96,79,42,30.24,29.85,26,8,26,0.13
2013-2-10,66.4,53.9,38.8,61.5,36.7,19.0,94,58,28,30.09,29.68,28,11,28,1.58
2013-2-11,54.0,39.0,26.2,28.9,22.1,17.4,92,53,28,30.24,30.06,12,2,12,1.58
2013-2-12,50.4,41.4,33.1,46.8,27.9,20.5,94,60,44,30.18,29.94,16,5,16,1.58
2013-2-13,51.6,47.2,37.2,47.9,38.4,23.9,90,74,40,30.06,29.97,18,4,18,0.08
2013-2-14,57.2,44.2,31.6,32.0,28.1,24.4,86,56,36,30.21,29.97,16,3,16,0.00
2013-2-15,43.5,33.8,20.5,24.4,16.4,7.2,78,50,32,30.39,30.21,22,5,22,0.00
2013-2-16,37.8,30.5,20.5,25.7,16.6,10.8,90,58,38,30.36,30.15,18,5,18,0.00
2013-2-17,64.0,48.0,29.5,28.3,20.8,10.3,52,35,26,30.15,29.88,20,6,20,0.00
2013-2-18,59.4,50.6,33.6,51.0,34.7,19.8,84,55,32,30.18,29.68,33,11,33,0.08
2013-2-19,45.3,33.7,21.2,23.8,17.1,13.0,88,52,34,30.33,30.15,24,3,24,0.00
2013-2-20,34.3,31.8,27.7,29.6,20.0,10.7,90,63,40,30.30,30.06,18,7,18,0.13
2013-2-21,58.1,42.8,30.0,53.8,38.3,23.2,94,84,68,30.06,29.68,31,8,31,0.08
2013-2-22,38.8,28.7,21.2,33.8,18.2,14.3,94,66,44,30.15,29.88,26,7,26,0.00
2013-2-23,46.4,31.0,18.3,22.5,18.5,14.0,96,64,34,30.12,30.00,13,1,13,0.00
2013-2-24,58.8,43.5,27.9,30.6,23.9,16.3,68,48,30,30.03,29.88,20,6,20,0.00
2013-2-25,42.3,39.6,37.6,39.0,30.8,23.6,96,72,50,29.91,29.47,32,10,32,0.46
2013-2-26,47.5,37.1,33.3,44.0,34.9,30.6,98,92,88,29.94,29.44,22,9,22,0.04
2013-2-27,41.5,34.2,30.9,32.0,29.8,25.1,96,84,62,30.12,29.88,24,9,24,0.04
2013-2-28,35.4,32.0,27.5,28.0,26.5,25.1,96,80,68,30.21,30.09,21,7,21,0.00
2013-3-1,32.7,29.6,26.1,25.9,21.1,17.5,82,71,58,30.27,30.15,19,6,19,0.04
2013-3-2,39.4,28.8,20.7,23.1,19.0,13.2,96,69,42,30.36,30.21,16,4,16,0.00
2013-3-3,56.8,42.4,23.5,27.7,22.8,16.4,82,48,30,30.21,29.82,18,6,18,0.04
2013-3-4,66.6,55.4,43.7,44.5,34.7,25.5,76,47,36,29.91,29.68,27,7,27,0.04
2013-3-5,44.8,38.0,30.2,37.4,23.3,14.1,98,58,36,30.36,29.91,37,11,37,0.08
2013-3-6,48.9,35.5,23.4,22.5,17.2,12.2,68,48,32,30.41,30.24,13,4,13,0.04
2013-3-7,62.4,49.1,35.8,26.3,22.7,18.9,50,37,26,30.27,30.15,17,6,17,0.04
2013-3-8,60.8,52.9,42.8,33.7,29.3,23.9,52,41,36,30.27,30.06,19,9,19,0.00
2013-3-9,79.5,61.5,52.5,73.7,45.2,29.6,94,58,38,30.06,29.76,29,10,29,1.29
2013-3-10,76.1,61.2,29.5,70.4,56.7,26.9,96,85,82,30.00,29.71,27,8,27,0.79
2013-3-11,45.5,33.6,26.8,29.4,24.2,19.8,92,71,40,30.09,29.94,22,9,22,0.79
2013-3-12,55.4,42.0,27.1,33.6,26.7,16.1,94,59,30,30.33,30.03,22,4,22,0.79
2013-3-13,53.8,37.7,27.3,21.9,16.8,13.5,66,43,26,30.47,30.33,11,1,11,0.00
2013-3-14,72.0,53.2,33.3,39.7,25.8,15.1,52,35,26,30.39,30.15,24,5,24,0.00
2013-3-15,79.2,64.6,50.2,44.4,39.5,35.0,70,42,24,30.15,29.88,27,6,27,0.00
2013-3-16,76.5,62.8,51.8,45.0,38.7,33.7,52,41,32,29.91,29.82,19,5,19,0.00
2013-3-17,65.8,55.2,42.1,61.0,48.4,32.2,96,79,50,29.91,29.74,23,7,23,0.24
2013-3-18,64.4,52.3,34.3,59.6,40.7,22.6,94,67,34,30.09,29.74,18,5,18,0.00
2013-3-19,57.7,44.5,30.4,28.5,20.1,13.3,86,41,20,30.30,30.03,17,5,17,0.00
2013-3-20,48.6,38.5,27.9,28.9,18.8,11.3,86,47,28,30.39,30.12,19,4,19,0.00
2013-3-21,35.6,34.6,33.6,34.3,18.8,13.3,96,55,42,30.12,29.85,17,7,17,0.17
2013-3-22,54.5,42.8,34.0,50.4,40.9,32.7,98,93,86,29.97,29.82,18,6,18,0.54
2013-3-23,46.0,40.9,38.3,43.8,39.9,37.5,98,96,92,29.94,29.74,15,6,15,0.00
2013-3-24,58.3,37.6,25.3,54.0,32.4,17.2,100,82,62,30.18,29.68,32,12,32,0.04
2013-3-25,34.3,28.4,23.7,21.3,18.5,15.1,80,67,52,30.36,30.09,26,10,26,0.00
2013-3-26,47.3,31.9,19.4,26.4,20.0,16.0,98,65,38,30.44,30.33,15,2,15,0.00
2013-3-27,59.7,44.9,26.2,26.5,22.3,17.6,80,44,26,30.33,30.15,18,6,18,0.00
2013-3-28,68.7,57.3,47.1,44.3,33.9,23.6,62,41,38,30.24,30.15,16,5,16,0.00
2013-3-29,71.4,62.1,54.0,66.3,56.4,43.7,96,82,60,30.24,28.97,15,4,15,0.17
2013-3-30,71.2,59.2,54.3,66.5,57.0,53.0,98,93,76,30.15,29.94,19,4,19,0.16
2013-3-31,69.4,60.5,45.9,63.5,50.0,38.1,96,71,36,30.06,29.91,24,4,24,0.04
2013-4-1,65.7,49.0,39.0,44.3,40.9,31.6,100,76,42,30.21,30.03,18,5,18,0.04
2013-4-2,43.5,41.2,36.3,33.5,31.5,29.3,90,69,58,30.24,30.18,15,8,15,0.50
2013-4-3,49.6,42.5,36.7,41.0,29.0,24.7,98,61,42,30.27,30.15,28,7,28,0.04
2013-4-4,59.7,47.5,40.1,42.1,37.6,32.7,100,72,42,30.18,30.09,15,3,15,0.00
2013-4-5,70.0,52.2,31.3,46.0,35.1,30.9,100,60,26,30.27,30.03,13,3,13,0.00
2013-4-6,73.4,62.8,54.9,43.2,38.1,30.9,54,40,32,30.03,29.88,28,8,28,0.00
2013-4-7,75.0,64.1,53.4,62.2,55.5,42.8,98,75,52,29.97,29.82,23,6,23,0.00
2013-4-8,71.2,65.8,59.7,63.5,60.4,56.3,98,83,74,29.88,29.79,21,8,21,0.29
2013-4-9,79.9,71.7,64.2,66.1,61.3,56.1,86,71,52,29.88,29.79,24,9,24,0.00
2013-4-10,73.6,58.2,47.3,65.1,53.3,45.8,98,84,66,29.97,29.79,27,8,27,1.29
2013-4-11,51.6,44.4,34.2,46.2,35.1,26.6,100,72,42,29.94,29.79,21,8,21,0.04
2013-4-12,57.9,44.2,33.1,37.2,31.3,24.9,98,64,38,30.09,29.85,19,4,19,0.00
2013-4-13,70.0,53.9,38.1,48.1,39.6,33.0,90,61,36,30.12,29.85,16,5,16,0.00
2013-4-14,77.9,67.3,57.4,48.2,44.3,40.1,58,44,32,29.85,29.65,28,7,28,0.00
2013-4-15,79.7,66.8,56.5,63.2,55.7,44.9,88,68,54,29.94,29.79,18,5,18,0.00
2013-4-16,79.2,62.1,52.0,64.2,56.5,50.1,96,83,56,30.06,29.91,13,4,13,0.00
2013-4-17,82.8,73.4,63.0,69.0,64.7,59.4,94,76,54,30.03,29.74,26,8,27,0.04
2013-4-18,82.6,64.5,37.2,78.2,59.3,23.8,100,83,56,30.06,28.61,26,10,27,3.07
2013-4-19,55.4,38.6,32.5,30.4,24.3,21.4,72,57,32,30.15,30.03,23,10,23,3.07
2013-4-20,68.2,52.5,34.3,35.8,31.8,27.2,94,50,26,30.24,30.12,15,3,15,0.00
2013-4-21,68.5,58.1,48.9,37.1,34.3,30.6,56,42,28,30.33,30.18,22,6,22,0.00
2013-4-22,72.1,60.7,48.4,41.1,36.4,30.7,54,41,30,30.24,29.97,24,6,24,0.00
2013-4-23,61.9,56.1,43.3,55.8,48.8,39.5,98,79,46,30.18,29.88,16,6,16,0.00
2013-4-24,54.5,47.6,34.0,50.4,36.6,19.5,98,70,28,30.36,30.15,15,5,15,0.00
2013-4-25,73.2,42.1,29.7,33.2,29.5,22.9,98,69,18,30.42,30.27,11,1,11,0.00
2013-4-26,68.4,53.4,48.7,65.5,46.0,29.7,98,80,34,30.33,30.15,22,9,24,0.00
2013-4-27,79.3,71.3,58.5,75.0,67.6,55.7,90,88,86,30.15,29.97,25,5,25,0.00
2013-4-28,68.4,55.0,52.0,55.7,52.2,46.8,96,91,48,30.09,29.94,10,1,10,0.00
2013-4-29,83.7,68.9,51.6,55.4,50.3,45.5,96,56,32,30.00,29.88,17,4,17,0.00
2013-4-30,81.5,72.5,59.2,54.2,46.8,39.8,74,42,26,29.97,29.91,23,6,23,0.00
2013-5-1,85.1,70.2,59.5,59.5,52.0,42.7,78,54,34,30.15,29.97,18,5,18,0.00
2013-5-2,61.7,59.9,57.2,57.4,55.8,53.4,94,86,80,30.18,30.12,10,4,10,0.00
2013-5-5,53.4,51.2,50.2,48.8,48.0,47.3,92,89,82,30.12,30.09,11,5,11,0.00
2013-5-6,66.0,54.2,48.4,52.8,50.0,47.9,98,87,58,30.18,30.06,13,3,13,0.00
2013-5-7,78.1,63.4,47.5,57.2,50.4,44.6,100,68,34,30.18,30.06,9,2,9,0.00
2013-5-8,79.2,73.2,65.8,59.3,55.4,52.2,80,55,40,30.15,30.00,20,4,20,0.00
2013-5-9,81.5,67.1,59.7,76.9,63.1,57.4,98,88,56,30.09,30.00,20,3,20,0.00
2013-5-12,70.2,61.3,50.9,48.6,38.5,30.3,90,46,26,30.33,30.21,13,3,13,0.00
2013-5-13,82.9,66.2,49.6,56.7,48.7,43.4,82,57,36,30.24,30.12,17,4,17,0.00
2013-5-14,87.6,73.7,60.6,56.5,51.8,47.8,70,49,28,30.15,30.06,17,4,17,0.00
2013-5-15,84.0,68.9,63.5,79.4,57.5,46.2,98,69,50,30.09,29.94,16,3,16,0.00
2013-5-16,80.1,66.7,63.1,75.7,64.8,62.0,98,94,82,30.00,29.91,14,3,14,0.00
2013-5-17,84.7,71.7,64.2,67.6,64.1,61.4,98,79,50,30.03,29.94,10,2,10,0.00
2013-5-18,85.6,75.4,66.4,76.3,70.9,65.1,96,86,72,30.00,29.91,15,5,15,0.00
2013-5-19,87.1,78.3,70.9,72.0,66.4,60.4,96,70,42,29.94,29.76,25,7,25,0.00
2013-5-20,76.5,71.3,61.3,71.7,67.6,60.3,100,88,76,29.91,29.82,33,5,33,0.00
2013-5-21,65.8,62.6,59.5,63.6,61.0,58.3,98,95,90,30.00,29.71,27,6,27,0.00
2013-5-22,75.6,66.5,57.9,65.5,57.8,53.0,98,76,50,30.06,29.88,17,3,17,0.00
2013-5-23,76.3,65.8,56.7,65.1,58.1,53.0,98,78,52,30.24,30.06,105,2,105,0.00
2013-5-24,78.1,66.7,57.4,62.8,57.8,54.4,94,74,56,30.36,30.24,20,7,20,0.00
2013-5-25,82.6,70.4,59.5,66.1,58.8,51.4,88,68,54,30.33,30.18,16,5,16,0.00
2013-5-26,82.4,73.7,66.4,67.2,64.2,60.3,96,74,52,30.24,30.09,22,6,22,0.00
2013-5-27,83.1,75.2,68.7,68.9,65.4,60.1,94,73,52,30.12,29.94,27,7,27,0.00
2013-5-28,81.7,75.1,71.1,67.5,64.3,61.1,88,70,54,30.00,29.91,25,7,25,0.00
2013-5-29,78.8,74.4,69.3,66.6,64.8,63.3,88,72,62,30.03,29.88,23,8,23,0.00
2013-5-30,77.5,72.0,63.1,71.0,67.5,61.2,98,86,70,29.97,29.85,24,8,24,0.00
2013-6-4,67.3,67.2,67.1,65.0,65.0,64.9,92,92,92,30.03,30.03,4,3,4,0.00
2013-6-5,78.3,70.0,63.9,72.9,65.9,62.0,98,87,70,30.09,29.94,29,5,29,0.00
2013-6-6,75.4,68.1,57.4,67.9,61.7,56.5,98,81,56,30.06,30.00,31,2,31,0.00
2013-6-7,78.1,67.1,55.8,65.9,54.5,48.6,100,68,40,30.09,30.03,25,2,25,0.00
2013-6-8,82.0,68.8,54.1,60.7,56.6,53.3,98,69,42,30.06,29.97,15,3,15,0.00
2013-6-9,82.9,73.3,64.2,67.2,61.8,55.4,92,69,42,30.03,29.97,29,4,29,0.00
2013-6-10,92.5,79.0,65.7,73.8,66.4,60.9,88,68,42,30.06,30.00,59,2,59,0.00
2013-6-11,92.5,81.8,70.5,72.6,68.2,62.5,92,67,40,30.12,30.03,15,3,15,0.00
2013-6-12,92.1,80.1,74.5,72.4,70.2,63.2,90,74,42,30.12,30.03,21,4,21,0.00
2013-6-13,92.3,81.2,70.0,73.9,69.4,62.5,96,70,42,30.12,30.03,37,2,37,0.00
2013-6-14,93.6,80.1,70.0,74.6,70.5,67.6,92,74,48,30.12,30.00,13,4,13,0.00
2013-6-15,90.3,77.6,68.9,73.4,68.9,66.0,96,76,54,30.15,30.03,15,5,15,0.00
2013-6-16,91.0,80.4,70.2,78.7,73.8,68.0,94,81,54,30.12,30.00,118,3,118,0.00
2013-6-17,76.5,71.1,67.3,72.3,68.2,65.5,96,91,74,30.06,29.94,113,3,113,0.00
2013-6-18,84.4,77.1,65.8,75.5,65.2,56.0,96,70,42,30.12,30.03,15,2,15,0.00
2013-6-19,88.0,75.2,64.6,67.1,63.0,58.1,96,69,40,30.15,30.06,15,3,15,0.00
2013-6-20,89.6,78.5,67.6,72.0,68.0,65.3,94,72,52,30.18,30.06,21,6,21,0.00
2013-6-21,78.1,76.1,75.0,73.2,72.3,71.6,90,88,82,30.15,30.09,25,6,25,0.00
2013-6-25,86.0,80.4,76.1,68.5,67.1,65.1,76,64,52,29.97,29.94,19,5,19,0.00
2013-6-26,95.4,83.7,75.0,74.4,70.8,68.0,92,67,46,30.03,29.94,29,3,29,0.00
2013-6-27,100.6,85.9,73.4,75.1,70.7,65.8,94,65,36,30.09,29.97,18,1,18,0.00
2013-6-28,92.3,83.1,73.6,75.2,66.1,55.5,86,59,36,30.06,29.91,25,4,25,0.00
2013-6-29,86.9,80.4,69.4,52.2,49.7,40.2,48,35,28,29.97,29.91,22,5,22,0.00
2013-6-30,69.6,64.0,59.9,58.9,54.7,48.6,92,73,48,30.03,29.94,11,1,11,0.00
2013-7-3,86.0,77.0,60.4,53.7,47.7,40.0,78,38,22,30.21,30.09,13,3,13,0.00
2013-7-4,89.4,74.3,59.2,58.8,53.3,44.5,84,52,22,30.15,30.06,10,2,10,0.00
2013-7-5,93.2,76.5,60.6,59.3,55.5,49.5,86,52,26,30.15,30.00,15,3,15,0.00
2013-7-6,90.7,76.3,65.5,61.7,56.8,52.8,74,53,30,30.12,30.03,11,3,11,0.00
2013-7-7,92.8,79.6,68.7,66.9,60.9,53.9,82,56,30,30.15,30.06,14,4,14,0.00
2013-7-8,94.5,81.5,69.1,69.2,64.3,59.8,82,59,34,30.21,30.09,12,3,12,0.00
2013-7-9,97.2,84.2,72.9,68.6,65.5,61.0,86,57,32,30.18,30.06,80,2,80,0.00
2013-7-10,101.1,83.0,71.4,67.8,65.5,62.4,82,59,30,30.12,30.06,13,1,13,0.00
2013-7-11,96.1,88.2,78.1,68.9,62.8,56.5,68,44,30,30.12,30.03,11,4,11,0.00
2013-7-12,96.1,81.6,71.1,65.9,59.8,53.9,66,49,32,30.15,30.06,17,5,17,0.00
2013-7-13,94.5,78.5,65.8,65.6,56.3,50.5,92,50,30,30.15,30.06,13,4,13,0.00
2013-7-14,87.3,77.3,66.2,58.2,53.0,46.0,74,45,26,30.15,30.03,18,4,18,0.00
2013-7-15,91.9,78.8,70.7,67.1,61.7,54.4,82,57,34,30.27,30.12,21,5,21,0.00
2013-7-16,89.4,75.7,69.6,75.3,69.9,60.6,94,84,46,30.33,30.24,22,3,22,0.00
2013-7-17,92.5,81.1,72.1,73.1,67.0,57.8,96,67,34,30.39,30.27,19,3,19,0.00
2013-7-18,78.8,70.7,68.7,69.3,67.6,64.7,94,90,64,30.30,30.24,3,0,3,0.00
2013-7-19,75.6,73.8,72.9,67.2,66.3,65.1,82,77,70,30.06,30.06,6,1,6,0.00
2013-7-20,97.9,80.4,69.3,69.4,66.4,61.3,94,66,34,30.06,29.94,19,3,19,0.00
2013-7-21,84.6,75.4,70.0,76.9,70.1,65.1,94,84,64,30.06,29.94,10,2,10,0.00
2013-7-22,94.6,79.2,69.3,72.2,66.2,58.7,92,67,38,30.09,29.94,64,4,64,0.00
2013-8-11,90.3,82.4,74.3,73.3,70.2,65.8,94,68,48,30.21,30.12,11,2,11,0.00
2013-8-12,84.6,77.5,71.2,79.2,72.5,67.1,94,85,64,30.21,30.06,17,1,23,0.00
2013-8-13,88.0,78.6,68.5,82.7,74.8,65.3,96,88,82,30.18,30.06,19,2,19,0.00
2013-8-14,75.6,68.0,64.0,65.7,63.7,58.2,90,87,56,30.18,30.15,10,3,10,0.00
2013-8-15,80.8,68.0,59.4,61.0,57.6,52.8,96,73,44,30.24,30.12,10,2,10,0.00
2013-8-16,81.7,68.9,62.1,62.7,59.7,56.8,94,74,48,30.21,30.12,10,3,10,0.00
2013-8-17,78.8,69.1,59.4,68.7,59.9,56.0,96,75,48,30.24,30.15,20,2,20,0.00
2013-8-18,85.3,72.5,63.1,65.8,62.1,56.5,94,73,42,30.24,30.18,12,2,12,0.00
2013-8-19,71.4,67.8,65.3,68.0,65.3,63.4,94,92,90,30.21,30.18,4,0,4,0.00
2013-8-26,83.7,79.5,71.4,69.6,69.1,68.2,90,71,64,30.21,30.21,0,0,0,0.00
2013-9-11,91.6,76.4,67.6,69.6,66.2,60.8,94,73,36,30.24,30.15,8,0,8,0.00
2013-9-12,93.0,79.4,69.3,72.3,66.6,62.2,94,68,38,30.21,30.12,13,2,13,0.00
2013-9-13,86.0,73.8,63.5,67.6,54.1,46.9,82,53,32,30.21,30.09,15,5,15,0.00
2013-9-14,85.5,68.6,56.7,53.5,51.1,48.4,88,56,32,30.18,30.06,15,4,15,0.00
2013-9-15,90.9,74.2,59.9,66.5,55.6,48.2,74,55,34,30.18,30.09,13,2,13,0.00
2013-9-16,80.2,72.7,68.4,68.5,64.6,60.6,92,76,56,30.30,30.15,11,3,11,0.00
2013-9-17,84.4,74.2,67.5,70.0,64.3,58.6,92,73,46,30.27,30.09,12,4,12,0.00
2013-9-18,90.5,78.4,70.7,68.2,64.4,61.4,86,64,40,30.15,30.03,15,4,15,0.00
2013-9-19,91.8,79.4,71.4,68.6,64.7,60.8,88,63,40,30.12,29.97,22,4,22,0.00
2013-9-20,71.8,70.8,70.3,68.5,68.3,68.1,92,92,90,30.06,30.03,10,3,12,0.00
2013-9-21,74.5,60.8,52.9,68.6,50.7,44.5,96,74,36,30.03,30.00,6,0,8,0.00
2013-9-22,69.4,54.5,49.3,53.8,49.8,46.0,98,86,48,30.06,30.00,11,2,11,0.00
2013-9-24,66.2,61.4,57.7,59.1,58.1,56.8,96,89,74,29.97,29.97,3,0,3,0.00
2013-9-25,82.6,67.3,56.7,65.5,58.2,54.1,98,76,42,30.00,29.94,11,1,11,0.00
2013-9-26,86.5,71.6,59.2,61.2,58.1,53.7,94,67,34,30.06,29.94,13,5,13,0.00
2013-9-27,85.5,73.2,63.1,63.2,59.4,56.0,92,64,40,30.12,30.03,18,6,18,0.00
2013-9-28,86.2,75.5,68.5,80.6,66.9,59.2,94,75,60,30.18,30.03,20,4,20,0.00
2013-9-29,80.2,71.3,58.5,74.4,61.3,51.2,100,73,42,30.18,30.03,13,2,13,0.00
2013-9-30,82.6,70.7,59.5,69.1,62.5,57.3,98,78,46,30.03,29.97,12,2,12,0.00
2013-10-1,82.9,71.6,66.4,71.2,66.5,62.7,94,85,54,30.09,29.97,13,2,13,0.00
2013-10-9,78.8,65.9,52.3,51.1,45.9,35.9,86,52,24,30.21,30.12,10,2,10,0.00
2013-10-10,78.1,62.9,49.6,54.7,50.9,45.9,96,68,42,30.18,30.03,13,3,13,0.00
2013-10-11,74.3,66.9,56.1,64.0,59.3,52.6,94,77,60,30.03,29.97,22,5,22,0.00
2013-10-12,76.8,67.1,62.4,72.3,63.6,56.5,96,89,80,30.27,30.00,18,3,18,0.00
2013-10-13,73.0,64.3,59.9,56.7,52.7,46.2,84,67,50,30.39,30.27,17,5,17,0.00
2013-10-14,66.6,62.4,58.5,63.2,56.9,49.1,96,83,70,30.33,30.06,18,6,18,0.00
2013-10-15,78.1,63.8,51.3,72.7,58.3,44.0,96,83,62,30.15,30.00,13,4,13,0.00
2013-10-16,61.3,51.9,39.9,48.5,39.8,34.8,94,65,44,30.18,30.06,12,3,12,0.00
2013-10-17,66.2,52.1,41.5,53.7,44.3,40.1,100,78,42,30.12,30.06,10,1,10,0.00
2013-10-18,66.0,52.2,44.2,49.4,45.9,42.7,98,81,48,30.12,30.03,11,2,11,0.00
2013-10-19,61.9,50.8,40.6,47.6,36.7,32.5,94,62,36,30.21,30.09,13,2,13,0.00
2013-10-20,61.2,44.5,39.4,40.0,37.7,35.8,94,79,42,30.09,30.03,14,1,14,0.00
2013-10-23,65.1,53.2,39.4,42.8,37.1,29.6,96,59,32,30.24,30.06,6,1,8,0.00
2013-10-24,57.0,46.3,39.4,42.6,32.7,23.5,96,62,38,30.44,30.12,16,3,16,0.00
2013-10-25,60.3,46.1,34.7,31.5,26.7,23.0,70,48,30,30.50,30.27,18,3,18,0.00
2013-10-26,68.9,53.8,40.5,53.0,43.2,30.2,94,68,50,30.27,30.15,13,2,13,0.00
2013-10-27,68.5,53.0,42.1,49.6,40.5,29.9,96,67,28,30.18,30.06,10,1,10,0.00
2013-10-28,66.7,59.2,43.2,56.0,52.1,41.3,94,79,54,30.21,30.09,15,2,15,0.00
2013-10-29,68.7,64.5,57.0,64.6,61.2,55.3,94,89,80,30.18,30.06,15,6,15,0.00
2013-10-30,77.4,70.2,63.9,71.8,66.0,59.9,92,86,82,30.12,29.88,20,4,20,0.00
2013-10-31,77.2,63.0,49.3,72.2,57.3,43.9,94,83,38,29.88,29.62,24,4,25,0.00
2013-11-1,68.0,55.9,44.4,54.5,43.4,37.6,98,67,34,30.09,29.85,21,2,21,0.00
2013-11-2,56.5,46.0,36.5,43.7,37.6,32.4,96,75,46,30.30,30.09,15,4,17,0.00
2013-11-3,37.9,37.2,36.7,36.2,35.5,35.2,94,94,94,30.27,30.27,0,0,0,0.00
2013-11-6,70.3,47.9,33.1,65.3,42.9,30.7,92,83,60,30.39,29.97,25,5,25,0.00
2013-11-7,62.6,45.7,33.8,46.7,36.5,31.3,96,74,34,30.50,30.39,14,1,14,0.00
2013-11-8,64.0,51.6,37.8,41.3,37.1,34.8,96,62,34,30.39,30.12,18,4,18,0.00
2013-11-9,66.9,53.7,44.6,43.8,41.1,35.8,96,65,42,30.33,30.15,12,2,12,0.00
2013-11-10,70.3,54.8,45.1,52.3,43.9,38.1,96,71,36,30.41,30.33,14,1,14,0.00
2013-11-11,70.5,55.4,42.3,54.5,47.9,40.3,96,77,50,30.47,30.24,18,2,18,0.00
2013-11-12,42.3,33.3,23.4,40.5,19.7,12.3,94,59,36,30.74,30.44,18,6,18,0.00
2013-11-13,50.9,35.0,22.3,20.0,16.0,11.5,78,48,28,30.68,30.36,13,3,13,0.00
2013-11-14,34.2,31.0,28.0,15.6,14.8,13.1,56,50,46,30.36,30.27,5,0,5,0.00
2013-11-16,68.7,65.2,62.2,61.2,60.0,58.7,94,84,72,29.88,29.74,26,9,26,0.00
2013-11-20,51.3,50.4,45.5,21.2,14.1,12.3,38,23,22,30.09,30.06,21,8,22,0.00
2013-11-27,39.0,26.0,16.7,13.1,8.2,5.0,70,47,32,30.41,30.30,15,3,17,0.00
2013-11-28,53.8,36.1,22.5,23.6,15.5,6.8,74,44,30,30.44,30.27,14,3,16,0.00
2013-11-29,55.0,38.3,23.5,25.9,20.1,14.2,90,53,22,30.50,30.30,14,2,14,0.00
2013-11-30,58.1,46.4,31.8,43.2,31.8,17.4,86,58,46,30.33,30.12,20,4,20,0.00
2013-12-1,55.9,50.3,42.4,49.2,45.2,40.1,92,83,70,30.15,29.91,8,1,10,0.00
2013-12-2,65.5,52.6,39.2,57.9,46.3,36.7,98,81,50,29.94,29.71,10,1,10,0.00
2013-12-3,69.6,56.7,42.6,58.0,50.2,40.6,100,81,46,29.74,29.59,15,4,15,0.00
2013-12-4,59.2,47.9,30.2,50.5,44.6,27.4,98,89,56,30.00,29.59,19,6,19,0.00
2013-12-5,30.2,23.6,19.6,27.8,17.7,10.5,94,79,56,30.27,30.00,15,6,15,0.00
2013-12-6,20.3,17.8,13.3,17.9,11.9,0.2,92,78,54,30.53,30.21,12,6,14,0.00
2013-12-7,22.8,15.9,6.3,8.0,1.7,-6.3,58,53,44,30.59,30.27,18,6,18,0.00
2013-12-8,29.7,25.2,20.8,29.0,22.1,7.1,98,89,54,30.27,30.03,18,4,18,0.00
2013-12-9,26.8,23.3,18.5,24.5,15.5,8.7,94,73,50,30.36,30.15,13,4,13,0.00
2013-12-10,18.3,17.5,15.1,16.3,15.7,13.5,94,92,92,30.36,30.33,12,5,12,0.00
2013-12-11,38.8,30.0,20.8,29.7,16.5,8.4,98,58,44,30.59,30.41,12,4,12,0.00
2013-12-12,43.0,27.8,12.7,22.0,14.9,6.6,90,60,42,30.56,30.27,13,3,13,0.00
2013-12-13,39.6,34.9,28.8,36.9,29.4,18.3,96,82,52,30.27,29.85,15,4,15,0.00
2013-12-14,65.3,40.5,22.1,60.5,37.3,21.2,100,88,78,30.27,29.85,21,5,21,0.00
2013-12-15,51.4,30.4,18.1,30.0,23.8,17.3,98,80,42,30.30,30.15,13,1,13,0.00
2013-12-16,62.4,45.5,38.3,34.4,29.2,27.0,64,54,30,30.21,30.12,10,3,12,0.00
2013-12-17,60.4,43.4,28.6,37.6,28.8,22.6,96,61,28,30.33,30.18,15,2,15,0.00
2013-12-18,61.9,47.2,27.7,36.2,30.3,20.7,90,54,36,30.30,30.00,21,4,21,0.00
2013-12-19,60.8,56.2,50.9,55.5,47.3,34.7,84,72,50,30.00,29.76,23,8,23,0.00
2013-12-20,63.5,43.1,30.6,57.7,40.7,30.1,100,92,74,29.94,29.76,17,6,17,0.00
2013-12-21,54.5,44.0,27.1,50.4,40.8,23.5,98,89,82,29.82,28.50,14,2,14,0.04
2013-12-22,26.9,10.9,5.3,23.5,5.7,-2.9,98,80,64,30.36,29.76,16,7,16,0.00
2013-12-23,30.0,15.7,2.8,17.8,7.7,-4.8,86,71,52,30.53,30.33,13,3,13,0.04
2013-12-24,42.8,26.9,12.7,21.8,15.8,9.2,90,65,42,30.53,30.24,17,6,17,0.04
2013-12-25,44.4,32.0,23.9,28.5,23.9,19.4,92,73,52,30.39,30.24,10,2,15,0.04
2013-12-26,50.7,34.0,21.0,35.3,22.7,18.7,94,67,38,30.44,30.30,14,2,14,0.04
2013-12-27,57.9,41.4,26.8,30.2,25.5,19.9,90,57,28,30.44,30.33,11,2,11,0.04
2013-12-28,55.0,42.0,31.8,31.7,25.7,21.2,70,54,32,30.33,30.00,14,2,14,0.00
2013-12-29,41.9,30.2,20.1,34.0,19.2,7.5,82,63,56,30.30,29.97,18,5,18,0.00
2013-12-30,38.5,24.8,13.5,18.3,12.4,4.8,82,60,42,30.39,30.21,11,3,11,0.00
2013-12-31,52.7,33.7,18.1,26.2,18.7,13.3,90,60,28,30.42,30.15,15,3,15,0.00
2014-1-1,54.5,39.9,20.7,30.6,22.6,15.1,84,51,37,30.18,29.94,24,5,24,0.00
2014-1-2,25.5,16.2,8.2,16.4,6.0,0.8,86,64,48,30.47,30.15,21,5,21,0.00